SWR5PT EDDH-LSZH
Flight info
| Callsign | SWR5PT |
|---|---|
| Flight time | N/A |
| Altitude | 33000 |
| Route | IDEKO7G IDEKO N850 NIE/N0421F350 N850 ROBEG DCT SWALM/N0418F340 DCT OMOGI/N0421F350 T721 LAMGO/N0357F230 T721 RILAX |
| Aircraft | E190/M-SDE3GILORVW/S |
Departure
| Time | N/A |
|---|---|
| Airport | Hamburg Helmut Schmidt Airport (EDDH) |
Arrival
| Time | 2026-04-26 08:17 |
|---|---|
| Airport | Zürich Airport (LSZH) |
| Time | Latitude | Longitude | Altitude | Speed | Heading |
|---|---|---|---|---|---|
| 2026-04-26 07:32 | 51.27497 | 9.22513 | 35000 ft | 446 kts | 183° |
| 2026-04-26 07:33 | 51.24396 | 9.22373 | 34999 ft | 446 kts | 183° |
| 2026-04-26 07:33 | 51.18207 | 9.22091 | 34998 ft | 443 kts | 182° |
| 2026-04-26 07:34 | 51.12051 | 9.21814 | 35001 ft | 443 kts | 182° |
| 2026-04-26 07:34 | 51.05888 | 9.21539 | 35000 ft | 443 kts | 182° |
| 2026-04-26 07:35 | 50.99730 | 9.21261 | 34999 ft | 443 kts | 182° |
| 2026-04-26 07:35 | 50.93569 | 9.20986 | 34995 ft | 442 kts | 182° |
| 2026-04-26 07:36 | 50.87427 | 9.20711 | 34997 ft | 442 kts | 182° |
| 2026-04-26 07:36 | 50.81279 | 9.20438 | 35000 ft | 442 kts | 182° |
| 2026-04-26 07:37 | 50.75131 | 9.20164 | 34993 ft | 442 kts | 182° |
| 2026-04-26 07:37 | 50.69012 | 9.19491 | 35002 ft | 441 kts | 188° |
| 2026-04-26 07:38 | 50.62923 | 9.18269 | 34983 ft | 441 kts | 188° |
| 2026-04-26 07:38 | 50.56877 | 9.17056 | 34988 ft | 441 kts | 188° |
| 2026-04-26 07:39 | 50.50833 | 9.15856 | 35458 ft | 436 kts | 188° |
| 2026-04-26 07:39 | 50.47806 | 9.15254 | 35281 ft | 438 kts | 188° |
| 2026-04-26 07:39 | 50.44781 | 9.14656 | 35298 ft | 441 kts | 188° |
| 2026-04-26 07:40 | 50.38695 | 9.13456 | 35301 ft | 441 kts | 188° |
| 2026-04-26 07:40 | 50.32604 | 9.12259 | 35301 ft | 441 kts | 188° |
| 2026-04-26 07:41 | 50.26517 | 9.11059 | 35297 ft | 440 kts | 188° |
| 2026-04-26 07:41 | 50.20433 | 9.09872 | 35294 ft | 440 kts | 188° |
| 2026-04-26 07:42 | 50.14351 | 9.08686 | 35292 ft | 440 kts | 188° |
| 2026-04-26 07:42 | 50.08273 | 9.07502 | 35295 ft | 440 kts | 188° |
| 2026-04-26 07:43 | 50.02182 | 9.06320 | 35283 ft | 441 kts | 188° |
| 2026-04-26 07:43 | 49.96094 | 9.05140 | 35282 ft | 441 kts | 188° |
| 2026-04-26 07:44 | 49.90006 | 9.03964 | 35280 ft | 441 kts | 188° |
| 2026-04-26 07:44 | 49.83915 | 9.02790 | 35270 ft | 441 kts | 189° |
| 2026-04-26 07:45 | 49.77818 | 9.01616 | 35271 ft | 442 kts | 189° |
| 2026-04-26 07:45 | 49.71715 | 9.00446 | 35270 ft | 442 kts | 189° |
| 2026-04-26 07:46 | 49.65619 | 8.99281 | 35269 ft | 442 kts | 189° |
| 2026-04-26 07:46 | 49.59578 | 8.97707 | 35270 ft | 440 kts | 193° |
| 2026-04-26 07:47 | 49.53571 | 8.95919 | 35265 ft | 440 kts | 193° |
| 2026-04-26 07:47 | 49.47540 | 8.94220 | 35266 ft | 440 kts | 193° |
| 2026-04-26 07:47 | 49.44519 | 8.93385 | 35127 ft | 442 kts | 193° |
| 2026-04-26 07:48 | 49.41509 | 8.92553 | 34884 ft | 440 kts | 193° |
| 2026-04-26 07:48 | 49.38487 | 8.91718 | 34583 ft | 439 kts | 193° |
| 2026-04-26 07:48 | 49.35483 | 8.90886 | 34303 ft | 439 kts | 193° |
| 2026-04-26 07:48 | 49.32476 | 8.90054 | 33987 ft | 439 kts | 193° |
| 2026-04-26 07:49 | 49.29463 | 8.89220 | 33670 ft | 440 kts | 193° |
| 2026-04-26 07:49 | 49.26446 | 8.88388 | 33352 ft | 441 kts | 193° |
| 2026-04-26 07:49 | 49.23455 | 8.87563 | 33029 ft | 431 kts | 193° |
| 2026-04-26 07:50 | 49.17765 | 8.86005 | 32217 ft | 401 kts | 193° |
| 2026-04-26 07:50 | 49.15059 | 8.85250 | 31824 ft | 389 kts | 193° |
| 2026-04-26 07:50 | 49.12431 | 8.84517 | 31460 ft | 381 kts | 193° |
| 2026-04-26 07:50 | 49.10704 | 8.84035 | 31239 ft | 383 kts | 193° |
| 2026-04-26 07:51 | 49.08057 | 8.83297 | 30958 ft | 389 kts | 193° |
| 2026-04-26 07:51 | 49.05387 | 8.82554 | 30807 ft | 393 kts | 193° |
| 2026-04-26 07:51 | 49.02678 | 8.81803 | 30566 ft | 396 kts | 193° |
| 2026-04-26 07:51 | 48.99968 | 8.81055 | 30318 ft | 397 kts | 193° |
| 2026-04-26 07:52 | 48.94543 | 8.79558 | 30272 ft | 399 kts | 193° |
| 2026-04-26 07:52 | 48.91792 | 8.78798 | 29785 ft | 403 kts | 193° |
| 2026-04-26 07:52 | 48.89041 | 8.78042 | 29376 ft | 396 kts | 193° |
| 2026-04-26 07:53 | 48.86404 | 8.77326 | 29273 ft | 382 kts | 192° |
| 2026-04-26 07:53 | 48.83735 | 8.76606 | 28691 ft | 395 kts | 192° |
| 2026-04-26 07:53 | 48.80999 | 8.75872 | 28167 ft | 403 kts | 192° |
| 2026-04-26 07:53 | 48.78229 | 8.75130 | 27607 ft | 404 kts | 192° |
| 2026-04-26 07:54 | 48.75468 | 8.74394 | 27049 ft | 402 kts | 192° |
| 2026-04-26 07:54 | 48.72736 | 8.73665 | 26490 ft | 394 kts | 192° |
| 2026-04-26 07:54 | 48.70067 | 8.72954 | 25955 ft | 384 kts | 192° |
| 2026-04-26 07:54 | 48.67475 | 8.72265 | 25498 ft | 373 kts | 192° |
| 2026-04-26 07:55 | 48.64943 | 8.71590 | 25018 ft | 365 kts | 192° |
| 2026-04-26 07:55 | 48.62463 | 8.70930 | 24495 ft | 359 kts | 192° |
| 2026-04-26 07:55 | 48.60032 | 8.70283 | 24140 ft | 349 kts | 192° |
| 2026-04-26 07:55 | 48.57704 | 8.69667 | 24158 ft | 334 kts | 192° |
| 2026-04-26 07:56 | 48.55424 | 8.69057 | 24250 ft | 342 kts | 192° |
| 2026-04-26 07:56 | 48.53013 | 8.68411 | 24276 ft | 350 kts | 192° |
| 2026-04-26 07:56 | 48.50608 | 8.67773 | 24283 ft | 352 kts | 192° |
| 2026-04-26 07:56 | 48.48191 | 8.67132 | 24222 ft | 353 kts | 192° |
| 2026-04-26 07:57 | 48.45779 | 8.66497 | 24238 ft | 352 kts | 192° |
| 2026-04-26 07:57 | 48.43400 | 8.65867 | 24241 ft | 352 kts | 192° |
| 2026-04-26 07:57 | 48.40946 | 8.65216 | 24101 ft | 354 kts | 192° |
| 2026-04-26 07:57 | 48.38529 | 8.64581 | 23926 ft | 352 kts | 192° |
| 2026-04-26 07:58 | 48.36125 | 8.63924 | 23732 ft | 350 kts | 193° |
| 2026-04-26 07:58 | 48.33744 | 8.63199 | 23524 ft | 349 kts | 194° |
| 2026-04-26 07:58 | 48.31402 | 8.62477 | 23313 ft | 349 kts | 194° |
| 2026-04-26 07:58 | 48.29025 | 8.61755 | 23114 ft | 348 kts | 194° |
| 2026-04-26 07:59 | 48.26653 | 8.61042 | 22916 ft | 347 kts | 193° |
| 2026-04-26 07:59 | 48.24287 | 8.60336 | 22719 ft | 346 kts | 193° |
| 2026-04-26 07:59 | 48.21925 | 8.59626 | 22523 ft | 345 kts | 193° |
| 2026-04-26 07:59 | 48.19570 | 8.58923 | 22331 ft | 345 kts | 193° |
| 2026-04-26 08:00 | 48.17220 | 8.58223 | 22139 ft | 344 kts | 193° |
| 2026-04-26 08:00 | 48.14878 | 8.57523 | 21946 ft | 343 kts | 193° |
| 2026-04-26 08:00 | 48.12540 | 8.56821 | 21762 ft | 343 kts | 193° |
| 2026-04-26 08:00 | 48.10200 | 8.56118 | 21563 ft | 343 kts | 193° |
| 2026-04-26 08:01 | 48.07857 | 8.55414 | 21381 ft | 343 kts | 193° |
| 2026-04-26 08:01 | 48.05537 | 8.54717 | 21194 ft | 343 kts | 193° |
| 2026-04-26 08:01 | 48.03204 | 8.54018 | 21012 ft | 342 kts | 193° |
| 2026-04-26 08:01 | 48.00886 | 8.53324 | 20833 ft | 341 kts | 193° |
| 2026-04-26 08:02 | 47.98556 | 8.52626 | 20651 ft | 340 kts | 193° |
| 2026-04-26 08:02 | 47.96232 | 8.52003 | 20453 ft | 341 kts | 187° |
| 2026-04-26 08:02 | 47.93904 | 8.52249 | 20255 ft | 345 kts | 167° |
| 2026-04-26 08:02 | 47.91706 | 8.53736 | 20079 ft | 346 kts | 150° |
| 2026-04-26 08:03 | 47.89704 | 8.55659 | 19921 ft | 347 kts | 147° |
| 2026-04-26 08:03 | 47.87703 | 8.57652 | 19758 ft | 347 kts | 147° |
| 2026-04-26 08:03 | 47.85689 | 8.59632 | 19586 ft | 346 kts | 148° |
| 2026-04-26 08:03 | 47.83674 | 8.61585 | 19413 ft | 346 kts | 148° |
| 2026-04-26 08:04 | 47.81658 | 8.63526 | 19233 ft | 344 kts | 148° |
| 2026-04-26 08:04 | 47.79649 | 8.65460 | 19058 ft | 343 kts | 148° |
| 2026-04-26 08:04 | 47.77643 | 8.67395 | 18886 ft | 343 kts | 148° |
| 2026-04-26 08:04 | 47.75653 | 8.69311 | 18696 ft | 343 kts | 148° |
| 2026-04-26 08:05 | 47.73687 | 8.71200 | 18295 ft | 344 kts | 148° |
| 2026-04-26 08:05 | 47.71677 | 8.73135 | 17791 ft | 342 kts | 148° |
| 2026-04-26 08:05 | 47.69697 | 8.75038 | 17307 ft | 337 kts | 148° |
| 2026-04-26 08:05 | 47.67666 | 8.76692 | 16810 ft | 331 kts | 163° |
| 2026-04-26 08:06 | 47.65421 | 8.76988 | 16328 ft | 323 kts | 191° |
| 2026-04-26 08:06 | 47.63392 | 8.75722 | 15885 ft | 315 kts | 219° |
| 2026-04-26 08:06 | 47.61834 | 8.73561 | 15536 ft | 310 kts | 230° |
| 2026-04-26 08:06 | 47.60556 | 8.70978 | 15090 ft | 310 kts | 241° |
| 2026-04-26 08:07 | 47.59629 | 8.68116 | 14652 ft | 308 kts | 251° |
| 2026-04-26 08:07 | 47.59322 | 8.65110 | 14193 ft | 304 kts | 275° |
| 2026-04-26 08:07 | 47.59925 | 8.62162 | 13712 ft | 300 kts | 301° |
| 2026-04-26 08:07 | 47.61154 | 8.59691 | 13254 ft | 297 kts | 312° |
| 2026-04-26 08:08 | 47.62643 | 8.57591 | 12821 ft | 294 kts | 322° |
| 2026-04-26 08:08 | 47.64237 | 8.55712 | 12388 ft | 292 kts | 317° |
| 2026-04-26 08:08 | 47.65637 | 8.53546 | 11969 ft | 290 kts | 313° |
| 2026-04-26 08:08 | 47.67005 | 8.51355 | 11547 ft | 289 kts | 314° |
| 2026-04-26 08:09 | 47.68369 | 8.49168 | 11131 ft | 289 kts | 314° |
| 2026-04-26 08:09 | 47.69723 | 8.46980 | 10726 ft | 286 kts | 313° |
| 2026-04-26 08:09 | 47.71055 | 8.44809 | 10367 ft | 283 kts | 313° |
| 2026-04-26 08:09 | 47.72279 | 8.42523 | 9936 ft | 283 kts | 304° |
| 2026-04-26 08:10 | 47.72975 | 8.39801 | 9473 ft | 287 kts | 279° |
| 2026-04-26 08:10 | 47.72764 | 8.36851 | 8979 ft | 291 kts | 251° |
| 2026-04-26 08:10 | 47.71682 | 8.34337 | 8515 ft | 292 kts | 226° |
| 2026-04-26 08:10 | 47.70183 | 8.32340 | 8095 ft | 288 kts | 222° |
| 2026-04-26 08:11 | 47.68695 | 8.30369 | 7667 ft | 286 kts | 220° |
| 2026-04-26 08:11 | 47.66968 | 8.28973 | 7201 ft | 284 kts | 193° |
| 2026-04-26 08:11 | 47.65055 | 8.29186 | 6738 ft | 278 kts | 154° |
| 2026-04-26 08:11 | 47.63662 | 8.31052 | 6320 ft | 270 kts | 120° |
| 2026-04-26 08:12 | 47.62770 | 8.33413 | 5924 ft | 257 kts | 122° |
| 2026-04-26 08:12 | 47.61585 | 8.35303 | 5515 ft | 245 kts | 139° |
| 2026-04-26 08:12 | 47.60296 | 8.36855 | 5122 ft | 232 kts | 136° |
| 2026-04-26 08:12 | 47.59201 | 8.38469 | 4817 ft | 213 kts | 132° |
| 2026-04-26 08:13 | 47.58166 | 8.39955 | 4511 ft | 200 kts | 135° |
| 2026-04-26 08:13 | 47.57171 | 8.41269 | 4227 ft | 181 kts | 134° |
| 2026-04-26 08:13 | 47.56305 | 8.42455 | 4101 ft | 162 kts | 134° |
| 2026-04-26 08:13 | 47.55500 | 8.43599 | 3813 ft | 158 kts | 133° |
| 2026-04-26 08:14 | 47.54702 | 8.44693 | 3498 ft | 156 kts | 133° |
| 2026-04-26 08:14 | 47.53918 | 8.45777 | 3108 ft | 154 kts | 132° |
| 2026-04-26 08:14 | 47.53132 | 8.46865 | 2760 ft | 153 kts | 133° |
| 2026-04-26 08:14 | 47.52387 | 8.47913 | 2534 ft | 145 kts | 133° |
| 2026-04-26 08:15 | 47.51658 | 8.48905 | 2324 ft | 140 kts | 135° |
| 2026-04-26 08:15 | 47.50933 | 8.49923 | 2168 ft | 146 kts | 134° |
| 2026-04-26 08:15 | 47.50166 | 8.50942 | 1999 ft | 150 kts | 136° |
| 2026-04-26 08:15 | 47.49402 | 8.51995 | 1766 ft | 151 kts | 135° |
| 2026-04-26 08:16 | 47.48628 | 8.53039 | 1538 ft | 150 kts | 135° |
| 2026-04-26 08:16 | 47.47869 | 8.54053 | 1405 ft | 140 kts | 136° |
| 2026-04-26 08:16 | 47.47234 | 8.54946 | 1384 ft | 111 kts | 137° |
| 2026-04-26 08:16 | 47.46753 | 8.55582 | 1393 ft | 67 kts | 148° |
| 2026-04-26 08:17 | 47.46521 | 8.55704 | 1397 ft | 19 kts | 166° |
| 2026-04-26 08:17 | 47.46390 | 8.55756 | 1400 ft | 19 kts | 153° |
| 2026-04-26 08:17 | 47.46289 | 8.55887 | 1404 ft | 20 kts | 137° |
| 2026-04-26 08:17 | 47.46184 | 8.55998 | 1409 ft | 15 kts | 174° |
| 2026-04-26 08:18 | 47.46070 | 8.55986 | 1406 ft | 18 kts | 186° |
| 2026-04-26 08:18 | 47.45937 | 8.55952 | 1408 ft | 21 kts | 199° |
| 2026-04-26 08:18 | 47.45795 | 8.55883 | 1413 ft | 22 kts | 195° |
| 2026-04-26 08:18 | 47.45651 | 8.55842 | 1412 ft | 18 kts | 223° |
| 2026-04-26 08:19 | 47.45652 | 8.55646 | 1406 ft | 21 kts | 277° |
| 2026-04-26 08:19 | 47.45672 | 8.55404 | 1399 ft | 26 kts | 277° |
| 2026-04-26 08:19 | 47.45670 | 8.55224 | 1401 ft | 9 kts | 221° |
| 2026-04-26 08:19 | 47.45609 | 8.55228 | 1401 ft | 10 kts | 155° |
| 2026-04-26 08:20 | 47.45544 | 8.55271 | 1397 ft | 11 kts | 155° |
| 2026-04-26 08:20 | 47.45468 | 8.55324 | 1403 ft | 13 kts | 155° |
| 2026-04-26 08:20 | 47.45381 | 8.55384 | 1399 ft | 15 kts | 155° |
| 2026-04-26 08:20 | 47.45282 | 8.55453 | 1400 ft | 17 kts | 155° |
| 2026-04-26 08:21 | 47.45167 | 8.55531 | 1402 ft | 19 kts | 155° |
| 2026-04-26 08:21 | 47.45039 | 8.55623 | 1399 ft | 16 kts | 154° |
| 2026-04-26 08:21 | 47.44965 | 8.55692 | 1398 ft | 14 kts | 121° |
| 2026-04-26 08:21 | 47.44951 | 8.55837 | 1405 ft | 15 kts | 96° |
| 2026-04-26 08:22 | 47.44904 | 8.55959 | 1403 ft | 10 kts | 155° |
| 2026-04-26 08:22 | 47.44866 | 8.55966 | 1398 ft | 3 kts | 204° |
| 2026-04-26 08:22 | 47.44833 | 8.55952 | 1397 ft | 7 kts | 194° |
| 2026-04-26 08:22 | 47.44823 | 8.55927 | 1407 ft | 4 kts | 245° |
| 2026-04-26 08:23 | 47.44811 | 8.55888 | 1400 ft | 2 kts | 244° |
| 2026-04-26 08:23 | 47.44808 | 8.55881 | 1400 ft | 0 kts | 244° |